createdAt,value
2023-01-28T06:16:36.443Z,31.97
2023-01-28T06:19:22.660Z,35.33
2023-01-28T06:21:50.957Z,41.95
2023-01-28T06:24:19.817Z,34.13
2023-01-28T06:26:47.623Z,36.42
2023-01-28T06:29:15.793Z,34.47
2023-01-28T06:31:43.786Z,37.05
2023-01-28T06:34:11.359Z,33.70
2023-01-28T06:36:42.149Z,31.00
2023-01-28T06:39:09.683Z,35.13
2023-01-28T06:41:37.320Z,39.85
2023-01-28T06:44:05.051Z,39.80
2023-01-28T06:46:32.672Z,34.33
2023-01-28T06:49:00.381Z,37.20
2023-01-28T06:51:31.505Z,33.90
2023-01-28T06:54:00.302Z,41.55
2023-01-28T06:56:27.800Z,36.38
2023-01-28T06:59:02.862Z,35.60
2023-01-28T07:01:30.447Z,37.85
2023-01-28T07:03:58.258Z,37.70
2023-01-28T07:06:25.677Z,44.67
2023-01-28T07:08:52.858Z,35.00
2023-01-28T07:11:20.176Z,35.30
2023-01-28T07:13:47.866Z,39.28
2023-01-28T07:16:15.385Z,38.08
2023-01-28T07:18:42.630Z,43.75
2023-01-28T07:21:10.137Z,44.13
2023-01-28T07:23:37.431Z,39.38
2023-01-28T07:26:05.912Z,38.35
2023-01-28T07:28:34.512Z,38.60
2023-01-28T07:31:02.225Z,35.58
2023-01-28T07:33:30.033Z,43.58
2023-01-28T07:35:58.420Z,34.58
2023-01-28T07:38:25.978Z,44.33
2023-01-28T07:40:53.320Z,40.97
2023-01-28T07:43:20.882Z,39.88
2023-01-28T07:45:50.437Z,44.65
2023-01-28T07:48:18.750Z,41.47
2023-01-28T07:50:48.703Z,37.15
2023-01-28T07:53:16.803Z,45.30
2023-01-28T07:55:44.126Z,44.00
2023-01-28T07:58:47.058Z,39.50
2023-01-28T08:01:14.619Z,48.83
2023-01-28T08:03:52.247Z,45.40
2023-01-28T08:06:19.783Z,41.28
2023-01-28T08:08:48.936Z,43.25
2023-01-28T08:11:20.002Z,43.13
2023-01-28T08:13:48.850Z,49.58
2023-01-28T08:16:16.650Z,47.60
2023-01-28T08:18:44.246Z,44.67
2023-01-28T08:21:14.556Z,40.15
2023-01-28T08:23:41.911Z,44.40
2023-01-28T08:26:09.781Z,48.45
2023-01-28T08:28:37.145Z,73.53
2023-01-28T08:31:05.742Z,46.08
2023-01-28T08:33:33.488Z,42.13
2023-01-28T08:36:04.405Z,43.63
2023-01-28T08:38:31.779Z,59.60
2023-01-28T08:41:01.123Z,47.40
2023-01-28T08:43:28.993Z,46.58
2023-01-28T08:45:56.592Z,44.80
2023-01-28T08:48:24.049Z,44.08
2023-01-28T08:50:53.912Z,44.00
2023-01-28T08:53:48.234Z,48.33
2023-01-28T08:56:16.660Z,44.47
2023-01-28T08:58:45.093Z,52.13
2023-01-28T09:01:12.240Z,48.72
2023-01-28T09:03:39.388Z,47.20
2023-01-28T09:06:06.923Z,43.58
2023-01-28T09:08:34.091Z,43.72
2023-01-28T09:11:01.186Z,43.13
2023-01-28T09:13:28.799Z,42.13
2023-01-28T09:15:56.574Z,45.67
2023-01-28T09:18:23.826Z,43.78
2023-01-28T09:20:50.888Z,46.65
2023-01-28T09:23:18.831Z,52.38
2023-01-28T09:25:46.626Z,50.40
2023-01-28T09:28:14.145Z,46.88
2023-01-28T09:30:45.009Z,50.97
2023-01-28T09:33:32.412Z,43.60
2023-01-28T09:36:06.461Z,37.00
2023-01-28T09:38:44.851Z,39.65
2023-01-28T09:41:32.051Z,40.50
2023-01-28T09:44:11.569Z,43.20
2023-01-28T09:46:49.506Z,51.88
2023-01-28T09:49:50.329Z,36.72
2023-01-28T09:55:34.179Z,39.20
2023-01-28T09:58:01.962Z,45.35
2023-01-28T10:01:06.465Z,33.08
2023-01-28T10:04:10.010Z,32.72
2023-01-28T10:09:23.186Z,24.70
2023-01-28T10:12:22.817Z,28.58
2023-01-28T10:15:14.424Z,33.45
2023-01-28T10:17:45.831Z,32.13
2023-01-28T10:20:13.603Z,39.15
2023-01-28T10:22:49.197Z,33.10
2023-01-28T10:25:21.376Z,30.90
2023-01-28T10:27:51.655Z,34.75
2023-01-28T10:30:24.123Z,31.23
2023-01-28T10:33:16.248Z,26.02
2023-01-28T10:35:43.869Z,31.20
2023-01-28T10:38:16.286Z,33.80
2023-01-28T10:40:44.644Z,32.65
2023-01-28T10:43:12.237Z,32.20
2023-01-28T10:45:48.709Z,39.47
2023-01-28T10:48:29.345Z,34.53
2023-01-28T10:51:05.209Z,27.65
2023-01-28T10:53:46.876Z,40.38
2023-01-28T10:56:27.532Z,30.52
2023-01-28T10:59:03.975Z,34.78
2023-01-28T11:01:57.145Z,30.48
2023-01-28T11:04:55.374Z,26.42
2023-01-28T11:07:23.253Z,28.20
2023-01-28T11:09:56.422Z,24.80
2023-01-28T11:12:28.944Z,26.38
2023-01-28T11:15:05.011Z,27.80
2023-01-28T11:17:38.098Z,24.08
2023-01-28T11:20:19.623Z,23.70
2023-01-28T11:22:48.596Z,27.38
2023-01-28T11:25:39.166Z,30.75
2023-01-28T11:28:18.256Z,25.75
2023-01-28T11:30:55.078Z,32.40
2023-01-28T11:33:31.706Z,28.15
2023-01-28T11:36:15.816Z,31.40
2023-01-28T11:39:02.141Z,47.33
2023-01-28T11:41:33.198Z,32.80
2023-01-28T11:44:13.576Z,55.63
2023-01-28T11:46:49.868Z,37.50
2023-01-28T11:49:23.364Z,31.15
2023-01-28T11:52:12.553Z,32.83
2023-01-28T11:55:13.791Z,26.50
2023-01-28T11:57:51.270Z,25.60
2023-01-28T12:01:10.551Z,30.25
2023-01-28T12:03:59.404Z,24.65
2023-01-28T12:06:50.716Z,33.63
2023-01-28T12:09:55.354Z,30.02
2023-01-28T12:12:49.788Z,31.45
2023-01-28T12:15:30.164Z,28.60
2023-01-28T12:18:10.629Z,23.00
2023-01-28T12:20:40.814Z,28.25
2023-01-28T12:23:11.061Z,29.75
2023-01-28T12:25:46.340Z,28.33
2023-01-28T12:28:34.991Z,27.38
2023-01-28T12:31:08.330Z,61.78
2023-01-28T12:34:10.877Z,33.63
2023-01-28T12:37:03.865Z,37.83
2023-01-28T12:39:49.536Z,23.80
2023-01-28T12:42:26.757Z,25.70
2023-01-28T12:45:14.811Z,25.90
2023-01-28T12:47:47.233Z,29.08
2023-01-28T12:50:42.546Z,22.80
2023-01-28T12:53:21.904Z,26.23
2023-01-28T12:56:24.030Z,21.63
2023-01-28T12:58:57.748Z,23.25
2023-01-28T13:01:35.647Z,32.92
2023-01-28T13:04:39.783Z,29.75
2023-01-28T13:07:23.614Z,26.45
2023-01-28T13:10:12.515Z,73.28
2023-01-28T13:12:41.687Z,25.50
2023-01-28T13:15:16.903Z,27.70
2023-01-28T13:18:05.503Z,23.40
2023-01-28T13:20:39.203Z,22.50
2023-01-28T13:23:23.723Z,21.73
2023-01-28T13:25:54.126Z,23.55
2023-01-28T13:28:33.388Z,21.83
2023-01-28T13:31:06.315Z,27.58
2023-01-28T13:36:26.301Z,42.78
2023-01-28T13:39:21.692Z,35.13
2023-01-28T13:41:52.914Z,33.03
2023-01-28T13:44:29.081Z,30.90
2023-01-28T13:47:08.855Z,26.30
2023-01-28T13:49:51.455Z,25.95
2023-01-28T13:52:33.239Z,23.65
2023-01-28T13:55:04.406Z,24.45
2023-01-28T13:57:46.872Z,23.13
2023-01-28T14:00:35.739Z,22.15
2023-01-28T14:03:22.654Z,24.73
2023-01-28T14:05:50.125Z,21.58
2023-01-28T14:08:39.419Z,22.42
2023-01-28T14:11:32.092Z,25.88
2023-01-28T14:14:20.952Z,29.13
2023-01-28T14:17:28.035Z,27.63
2023-01-28T14:19:57.671Z,26.85
2023-01-28T14:22:27.331Z,21.85
2023-01-28T14:25:00.946Z,22.20
2023-01-28T14:27:37.028Z,21.88
2023-01-28T14:30:19.082Z,24.55
2023-01-28T14:32:50.684Z,26.30
2023-01-28T14:35:33.014Z,23.85
2023-01-28T14:38:07.088Z,21.23
2023-01-28T14:40:38.616Z,22.10
2023-01-28T14:43:09.353Z,22.73
2023-01-28T14:45:56.672Z,19.73
2023-01-28T14:48:46.771Z,22.00
2023-01-28T14:51:58.889Z,19.30
2023-01-28T14:54:53.244Z,22.45
2023-01-28T14:57:42.529Z,26.13
2023-01-28T15:00:21.866Z,27.58
2023-01-28T15:02:49.624Z,29.58
2023-01-28T15:05:25.848Z,23.70
2023-01-28T15:07:54.262Z,26.95
2023-01-28T15:10:34.008Z,22.15
2023-01-28T15:13:14.039Z,24.83
2023-01-28T15:15:46.624Z,23.70
2023-01-28T15:18:19.061Z,29.35
2023-01-28T15:20:49.405Z,26.10
2023-01-28T15:23:20.127Z,28.67
2023-01-28T15:25:48.115Z,39.17
2023-01-28T15:28:31.609Z,28.23
2023-01-28T15:31:02.583Z,28.85
2023-01-28T15:33:30.192Z,31.52
2023-01-28T15:35:59.194Z,35.15
2023-01-28T15:38:29.206Z,35.75
2023-01-28T15:41:03.030Z,27.90
2023-01-28T15:43:38.609Z,34.28
2023-01-28T15:46:13.891Z,35.78
2023-01-28T15:49:04.946Z,37.92
2023-01-28T15:51:36.467Z,42.53
2023-01-28T15:58:01.869Z,28.67
2023-01-28T16:07:29.451Z,32.80
2023-01-28T16:14:06.778Z,44.35
2023-01-28T16:16:40.967Z,35.10
2023-01-28T16:19:44.774Z,44.65
2023-01-28T16:22:35.941Z,43.17
2023-01-28T16:25:31.467Z,52.92
2023-01-28T16:31:16.309Z,47.45
2023-01-28T16:37:04.995Z,37.72
2023-01-28T16:39:39.923Z,36.67
2023-01-28T16:42:36.644Z,36.33
2023-01-28T16:45:18.307Z,37.08
2023-01-28T16:48:03.101Z,42.33
2023-01-28T16:51:06.286Z,38.47
2023-01-28T16:54:08.551Z,34.38
2023-01-28T17:01:15.381Z,58.03
2023-01-28T17:03:51.834Z,61.13
2023-01-28T17:07:21.138Z,60.38
2023-01-28T17:09:58.260Z,57.17
2023-01-28T17:13:03.629Z,46.42
2023-01-28T17:16:16.001Z,49.33
2023-01-28T17:18:59.545Z,51.17
2023-01-28T17:21:41.121Z,49.50
2023-01-28T17:24:17.148Z,50.42
2023-01-28T17:27:14.708Z,49.28
2023-01-28T17:32:57.550Z,40.78
2023-01-28T17:35:54.364Z,43.95
2023-01-28T17:38:55.238Z,39.13
2023-01-28T17:42:06.901Z,34.40
2023-01-28T17:45:05.496Z,39.97
2023-01-28T17:47:51.150Z,39.25
2023-01-28T17:50:25.694Z,38.47
2023-01-28T17:53:35.099Z,40.05
2023-01-28T17:56:22.115Z,38.55
2023-01-28T17:59:30.671Z,46.20
2023-01-28T18:02:02.561Z,51.50
2023-01-28T18:04:36.983Z,45.97
2023-01-28T18:07:11.533Z,44.35
2023-01-28T18:09:44.973Z,43.40
2023-01-28T18:12:39.626Z,43.05
2023-01-28T18:15:16.497Z,52.88
2023-01-28T18:18:09.135Z,53.03
2023-01-28T18:20:43.630Z,43.45
2023-01-28T18:23:21.196Z,50.35
2023-01-28T18:26:42.827Z,50.42
2023-01-28T18:33:29.920Z,45.60
2023-01-28T18:36:10.039Z,45.50
2023-01-28T18:39:32.085Z,40.72
2023-01-28T18:42:47.983Z,41.22
2023-01-28T18:48:41.358Z,41.50
2023-01-28T18:51:29.473Z,38.15
2023-01-28T18:57:58.112Z,50.20
2023-01-28T19:04:28.866Z,48.05
2023-01-28T19:13:41.619Z,42.85
2023-01-28T19:20:29.399Z,58.75
2023-01-28T19:23:20.709Z,49.30
2023-01-28T19:26:01.563Z,51.47
2023-01-28T19:31:34.251Z,50.58
2023-01-28T19:38:09.250Z,43.38
2023-01-28T19:43:21.773Z,45.30
2023-01-28T19:46:06.861Z,48.20
2023-01-28T19:48:37.101Z,42.47
2023-01-28T19:51:15.542Z,40.08
2023-01-28T19:53:56.313Z,41.90
2023-01-28T19:56:52.214Z,46.08
2023-01-28T20:02:58.158Z,43.72
2023-01-28T20:06:05.621Z,39.30
2023-01-28T20:08:42.279Z,48.13
2023-01-28T20:11:24.613Z,41.50
2023-01-28T20:14:03.701Z,43.15
2023-01-28T20:17:02.029Z,49.65
2023-01-28T20:20:07.182Z,38.55
2023-01-28T20:22:59.910Z,45.85
2023-01-28T20:31:36.150Z,42.75
2023-01-28T20:37:22.981Z,55.05
2023-01-28T20:40:05.081Z,46.50
2023-01-28T20:49:38.864Z,58.53
2023-01-28T20:55:45.266Z,69.47
2023-01-28T20:58:48.648Z,63.38
2023-01-28T21:04:38.399Z,61.25
2023-01-28T21:11:07.832Z,48.83
2023-01-28T21:14:57.270Z,41.38
2023-01-28T21:23:51.832Z,44.08
2023-01-28T21:26:25.421Z,49.92
2023-01-28T21:29:28.827Z,39.85
2023-01-28T21:32:16.530Z,38.30
2023-01-28T21:34:48.365Z,42.40
2023-01-28T21:37:35.145Z,32.10
2023-01-28T21:40:16.197Z,42.00
2023-01-28T21:50:06.246Z,44.28
2023-01-28T21:52:43.180Z,44.00
2023-01-28T21:55:37.503Z,43.65
2023-01-28T21:58:59.265Z,40.75
2023-01-28T22:02:06.730Z,33.10
2023-01-28T22:05:07.584Z,36.15
2023-01-28T22:12:20.251Z,42.40
2023-01-28T22:15:20.332Z,38.50
2023-01-28T22:18:30.103Z,33.97
2023-01-28T22:21:43.448Z,43.22
2023-01-28T22:25:27.049Z,38.15
2023-01-28T22:27:54.196Z,33.10
2023-01-28T22:30:21.338Z,39.80
2023-01-28T22:32:49.793Z,38.88
2023-01-28T22:35:16.954Z,42.38
2023-01-28T22:37:44.423Z,36.10
2023-01-28T22:40:12.046Z,45.05
2023-01-28T22:42:39.153Z,42.30
2023-01-28T22:45:07.230Z,43.80
2023-01-28T22:47:34.367Z,45.05
2023-01-28T22:50:01.447Z,39.65
2023-01-28T22:52:28.471Z,37.88
2023-01-28T22:54:55.552Z,38.92
2023-01-28T22:57:22.603Z,43.67
2023-01-28T22:59:59.483Z,48.30
2023-01-28T23:02:27.162Z,52.88
2023-01-28T23:04:54.246Z,51.00
2023-01-28T23:07:21.230Z,47.67
2023-01-28T23:09:48.324Z,46.72
2023-01-28T23:12:15.443Z,46.17
2023-01-28T23:15:00.885Z,47.38
2023-01-28T23:17:46.473Z,40.20
2023-01-28T23:20:31.959Z,38.40
2023-01-28T23:23:17.508Z,43.45
2023-01-28T23:25:44.621Z,37.42
2023-01-28T23:28:11.755Z,38.75
2023-01-28T23:30:39.792Z,43.30
2023-01-28T23:33:07.144Z,38.08
2023-01-28T23:35:34.212Z,46.42
2023-01-28T23:38:01.276Z,40.35
2023-01-28T23:40:28.587Z,46.00
2023-01-28T23:42:56.338Z,45.78
2023-01-28T23:45:23.343Z,48.70
2023-01-28T23:47:50.545Z,58.30
2023-01-28T23:50:17.993Z,50.28
2023-01-28T23:52:45.267Z,50.50
2023-01-28T23:55:12.626Z,48.33
2023-01-28T23:57:39.731Z,47.70
